sensor_id;sensor_type;location;lat;lon;timestamp;P1;durP1;ratioP1;P2;durP2;ratioP2
66607;SDS011;53462;39.616;8.824;2023-02-28T00:01:22;8.35;;;4.10;;
66607;SDS011;53462;39.616;8.824;2023-02-28T00:03:48;6.00;;;3.33;;
66607;SDS011;53462;39.616;8.824;2023-02-28T00:06:14;10.70;;;4.43;;
66607;SDS011;53462;39.616;8.824;2023-02-28T00:08:40;4.43;;;1.70;;
66607;SDS011;53462;39.616;8.824;2023-02-28T00:11:08;4.72;;;2.08;;
66607;SDS011;53462;39.616;8.824;2023-02-28T00:13:37;1.63;;;1.35;;
66607;SDS011;53462;39.616;8.824;2023-02-28T00:16:07;2.00;;;1.40;;
66607;SDS011;53462;39.616;8.824;2023-02-28T00:18:35;3.40;;;1.50;;
66607;SDS011;53462;39.616;8.824;2023-02-28T00:21:02;2.10;;;1.42;;
66607;SDS011;53462;39.616;8.824;2023-02-28T00:23:28;2.17;;;1.50;;
66607;SDS011;53462;39.616;8.824;2023-02-28T00:25:54;4.70;;;1.60;;
66607;SDS011;53462;39.616;8.824;2023-02-28T00:28:20;2.67;;;1.25;;
66607;SDS011;53462;39.616;8.824;2023-02-28T00:30:47;2.28;;;1.27;;
66607;SDS011;53462;39.616;8.824;2023-02-28T00:33:13;3.13;;;1.80;;
66607;SDS011;53462;39.616;8.824;2023-02-28T00:35:40;3.83;;;1.85;;
66607;SDS011;53462;39.616;8.824;2023-02-28T00:38:08;2.80;;;1.67;;
66607;SDS011;53462;39.616;8.824;2023-02-28T00:40:34;3.50;;;1.80;;
66607;SDS011;53462;39.616;8.824;2023-02-28T00:43:00;2.38;;;1.50;;
66607;SDS011;53462;39.616;8.824;2023-02-28T00:45:26;2.65;;;1.75;;
66607;SDS011;53462;39.616;8.824;2023-02-28T00:47:52;1.85;;;1.40;;
66607;SDS011;53462;39.616;8.824;2023-02-28T00:50:19;3.25;;;1.20;;
66607;SDS011;53462;39.616;8.824;2023-02-28T00:52:45;6.93;;;1.50;;
66607;SDS011;53462;39.616;8.824;2023-02-28T00:55:13;2.00;;;1.60;;
66607;SDS011;53462;39.616;8.824;2023-02-28T00:57:40;1.90;;;1.40;;
66607;SDS011;53462;39.616;8.824;2023-02-28T01:00:06;3.28;;;1.35;;
66607;SDS011;53462;39.616;8.824;2023-02-28T01:02:33;3.40;;;1.30;;
66607;SDS011;53462;39.616;8.824;2023-02-28T01:04:59;2.53;;;1.30;;
66607;SDS011;53462;39.616;8.824;2023-02-28T01:07:28;1.85;;;1.27;;
66607;SDS011;53462;39.616;8.824;2023-02-28T01:09:54;1.88;;;1.30;;
66607;SDS011;53462;39.616;8.824;2023-02-28T01:12:20;4.63;;;2.58;;
66607;SDS011;53462;39.616;8.824;2023-02-28T01:14:46;4.03;;;1.27;;
66607;SDS011;53462;39.616;8.824;2023-02-28T01:17:12;1.60;;;1.08;;
66607;SDS011;53462;39.616;8.824;2023-02-28T01:19:38;1.75;;;1.20;;
66607;SDS011;53462;39.616;8.824;2023-02-28T01:22:05;1.73;;;1.00;;
66607;SDS011;53462;39.616;8.824;2023-02-28T01:24:33;1.92;;;1.10;;
66607;SDS011;53462;39.616;8.824;2023-02-28T01:26:59;2.53;;;1.30;;
66607;SDS011;53462;39.616;8.824;2023-02-28T01:29:25;3.33;;;1.60;;
66607;SDS011;53462;39.616;8.824;2023-02-28T01:31:51;2.60;;;1.55;;
66607;SDS011;53462;39.616;8.824;2023-02-28T01:34:17;2.88;;;1.48;;
66607;SDS011;53462;39.616;8.824;2023-02-28T01:36:44;2.17;;;1.30;;
66607;SDS011;53462;39.616;8.824;2023-02-28T01:39:11;2.83;;;1.30;;
66607;SDS011;53462;39.616;8.824;2023-02-28T01:41:38;2.55;;;1.23;;
66607;SDS011;53462;39.616;8.824;2023-02-28T01:44:53;1.00;;;0.80;;
66607;SDS011;53462;39.616;8.824;2023-02-28T01:47:10;1.77;;;1.00;;
66607;SDS011;53462;39.616;8.824;2023-02-28T01:49:37;1.40;;;0.85;;
66607;SDS011;53462;39.616;8.824;2023-02-28T01:52:03;2.17;;;0.90;;
66607;SDS011;53462;39.616;8.824;2023-02-28T01:54:31;1.45;;;0.90;;
66607;SDS011;53462;39.616;8.824;2023-02-28T01:57:33;1.27;;;0.80;;
66607;SDS011;53462;39.616;8.824;2023-02-28T01:59:59;1.35;;;0.90;;
66607;SDS011;53462;39.616;8.824;2023-02-28T02:02:38;1.48;;;0.95;;
66607;SDS011;53462;39.616;8.824;2023-02-28T02:05:06;1.85;;;0.88;;
66607;SDS011;53462;39.616;8.824;2023-02-28T02:07:38;0.80;;;0.60;;
66607;SDS011;53462;39.616;8.824;2023-02-28T02:10:11;1.42;;;0.80;;
66607;SDS011;53462;39.616;8.824;2023-02-28T02:15:27;1.30;;;0.90;;
66607;SDS011;53462;39.616;8.824;2023-02-28T02:18:49;0.93;;;0.77;;
66607;SDS011;53462;39.616;8.824;2023-02-28T02:21:52;1.63;;;0.82;;
66607;SDS011;53462;39.616;8.824;2023-02-28T02:24:11;0.77;;;0.60;;
66607;SDS011;53462;39.616;8.824;2023-02-28T02:38:05;1.50;;;1.00;;
66607;SDS011;53462;39.616;8.824;2023-02-28T02:43:58;0.90;;;0.70;;
66607;SDS011;53462;39.616;8.824;2023-02-28T02:46:34;0.90;;;0.57;;
66607;SDS011;53462;39.616;8.824;2023-02-28T02:49:06;0.75;;;0.60;;
66607;SDS011;53462;39.616;8.824;2023-02-28T02:51:46;1.10;;;0.70;;
66607;SDS011;53462;39.616;8.824;2023-02-28T02:54:15;1.42;;;0.70;;
66607;SDS011;53462;39.616;8.824;2023-02-28T02:56:45;0.77;;;0.60;;
66607;SDS011;53462;39.616;8.824;2023-02-28T02:59:14;1.40;;;0.80;;
66607;SDS011;53462;39.616;8.824;2023-02-28T03:01:52;1.20;;;0.60;;
66607;SDS011;53462;39.616;8.824;2023-02-28T03:04:22;1.80;;;0.82;;
66607;SDS011;53462;39.616;8.824;2023-02-28T03:06:50;1.33;;;0.85;;
66607;SDS011;53462;39.616;8.824;2023-02-28T03:09:21;1.08;;;0.60;;
66607;SDS011;53462;39.616;8.824;2023-02-28T03:11:47;2.47;;;0.88;;
66607;SDS011;53462;39.616;8.824;2023-02-28T03:17:54;1.30;;;0.80;;
66607;SDS011;53462;39.616;8.824;2023-02-28T03:26:13;1.15;;;0.60;;
66607;SDS011;53462;39.616;8.824;2023-02-28T03:28:51;0.88;;;0.50;;
66607;SDS011;53462;39.616;8.824;2023-02-28T03:31:44;0.52;;;0.50;;
66607;SDS011;53462;39.616;8.824;2023-02-28T03:34:20;0.98;;;0.57;;
66607;SDS011;53462;39.616;8.824;2023-02-28T03:36:53;0.57;;;0.50;;
66607;SDS011;53462;39.616;8.824;2023-02-28T03:39:24;1.40;;;0.40;;
66607;SDS011;53462;39.616;8.824;2023-02-28T03:41:59;0.50;;;0.50;;
66607;SDS011;53462;39.616;8.824;2023-02-28T03:44:45;0.73;;;0.50;;
66607;SDS011;53462;39.616;8.824;2023-02-28T03:47:46;0.98;;;0.50;;
66607;SDS011;53462;39.616;8.824;2023-02-28T03:50:24;0.65;;;0.50;;
66607;SDS011;53462;39.616;8.824;2023-02-28T03:56:16;2.25;;;0.63;;
66607;SDS011;53462;39.616;8.824;2023-02-28T03:58:55;0.70;;;0.60;;
66607;SDS011;53462;39.616;8.824;2023-02-28T04:01:32;1.00;;;0.50;;
66607;SDS011;53462;39.616;8.824;2023-02-28T04:04:06;2.22;;;0.70;;
66607;SDS011;53462;39.616;8.824;2023-02-28T04:06:33;1.83;;;0.60;;
66607;SDS011;53462;39.616;8.824;2023-02-28T04:09:00;1.52;;;0.70;;
66607;SDS011;53462;39.616;8.824;2023-02-28T04:11:35;4.55;;;1.60;;
66607;SDS011;53462;39.616;8.824;2023-02-28T04:14:11;2.78;;;1.20;;
66607;SDS011;53462;39.616;8.824;2023-02-28T04:16:38;2.35;;;0.80;;
66607;SDS011;53462;39.616;8.824;2023-02-28T04:19:06;1.70;;;0.60;;
66607;SDS011;53462;39.616;8.824;2023-02-28T04:21:35;3.28;;;0.50;;
66607;SDS011;53462;39.616;8.824;2023-02-28T04:24:06;1.27;;;0.60;;
66607;SDS011;53462;39.616;8.824;2023-02-28T04:26:34;0.90;;;0.55;;
66607;SDS011;53462;39.616;8.824;2023-02-28T04:29:03;1.52;;;0.90;;
66607;SDS011;53462;39.616;8.824;2023-02-28T04:31:30;0.85;;;0.60;;
66607;SDS011;53462;39.616;8.824;2023-02-28T04:33:57;1.10;;;0.70;;
66607;SDS011;53462;39.616;8.824;2023-02-28T04:36:23;3.78;;;0.80;;
66607;SDS011;53462;39.616;8.824;2023-02-28T04:38:49;1.02;;;0.73;;
66607;SDS011;53462;39.616;8.824;2023-02-28T04:41:15;1.23;;;0.70;;
66607;SDS011;53462;39.616;8.824;2023-02-28T04:43:43;0.93;;;0.70;;
66607;SDS011;53462;39.616;8.824;2023-02-28T04:46:08;0.93;;;0.60;;
66607;SDS011;53462;39.616;8.824;2023-02-28T04:48:36;1.45;;;0.80;;
66607;SDS011;53462;39.616;8.824;2023-02-28T04:51:04;1.38;;;0.85;;
66607;SDS011;53462;39.616;8.824;2023-02-28T04:53:36;1.88;;;0.70;;
66607;SDS011;53462;39.616;8.824;2023-02-28T04:56:03;1.23;;;0.60;;
66607;SDS011;53462;39.616;8.824;2023-02-28T04:58:30;1.65;;;0.73;;
66607;SDS011;53462;39.616;8.824;2023-02-28T05:01:06;1.10;;;0.60;;
66607;SDS011;53462;39.616;8.824;2023-02-28T05:03:41;1.25;;;0.77;;
66607;SDS011;53462;39.616;8.824;2023-02-28T05:06:11;1.95;;;0.65;;
66607;SDS011;53462;39.616;8.824;2023-02-28T05:08:38;1.77;;;0.60;;
66607;SDS011;53462;39.616;8.824;2023-02-28T05:11:06;1.40;;;0.68;;
66607;SDS011;53462;39.616;8.824;2023-02-28T05:13:41;0.55;;;0.55;;
66607;SDS011;53462;39.616;8.824;2023-02-28T05:16:07;1.20;;;0.60;;
66607;SDS011;53462;39.616;8.824;2023-02-28T05:18:33;1.25;;;0.60;;
66607;SDS011;53462;39.616;8.824;2023-02-28T05:20:59;2.25;;;1.30;;
66607;SDS011;53462;39.616;8.824;2023-02-28T05:23:27;1.35;;;0.95;;
66607;SDS011;53462;39.616;8.824;2023-02-28T05:25:53;3.72;;;1.83;;
66607;SDS011;53462;39.616;8.824;2023-02-28T05:28:20;3.83;;;1.42;;
66607;SDS011;53462;39.616;8.824;2023-02-28T05:30:46;0.75;;;0.63;;
66607;SDS011;53462;39.616;8.824;2023-02-28T05:33:12;0.50;;;0.50;;
66607;SDS011;53462;39.616;8.824;2023-02-28T05:35:39;1.05;;;0.60;;
66607;SDS011;53462;39.616;8.824;2023-02-28T05:38:06;1.35;;;0.55;;
66607;SDS011;53462;39.616;8.824;2023-02-28T05:40:32;1.10;;;0.60;;
66607;SDS011;53462;39.616;8.824;2023-02-28T05:42:58;2.50;;;0.63;;
66607;SDS011;53462;39.616;8.824;2023-02-28T05:45:24;0.90;;;0.60;;
66607;SDS011;53462;39.616;8.824;2023-02-28T05:47:53;1.42;;;0.60;;
66607;SDS011;53462;39.616;8.824;2023-02-28T05:50:19;1.20;;;0.70;;
66607;SDS011;53462;39.616;8.824;2023-02-28T05:52:49;3.42;;;0.77;;
66607;SDS011;53462;39.616;8.824;2023-02-28T05:55:16;1.10;;;0.60;;
66607;SDS011;53462;39.616;8.824;2023-02-28T05:57:42;0.60;;;0.50;;
66607;SDS011;53462;39.616;8.824;2023-02-28T06:00:08;0.90;;;0.60;;
66607;SDS011;53462;39.616;8.824;2023-02-28T06:02:38;0.70;;;0.60;;
66607;SDS011;53462;39.616;8.824;2023-02-28T06:05:05;3.95;;;2.20;;
66607;SDS011;53462;39.616;8.824;2023-02-28T06:07:33;3.83;;;2.20;;
66607;SDS011;53462;39.616;8.824;2023-02-28T06:09:59;3.25;;;1.42;;
66607;SDS011;53462;39.616;8.824;2023-02-28T06:12:25;2.75;;;1.58;;
66607;SDS011;53462;39.616;8.824;2023-02-28T06:14:51;3.58;;;1.73;;
66607;SDS011;53462;39.616;8.824;2023-02-28T06:17:17;3.45;;;1.08;;
66607;SDS011;53462;39.616;8.824;2023-02-28T06:19:43;3.08;;;1.25;;
66607;SDS011;53462;39.616;8.824;2023-02-28T06:22:09;2.58;;;1.20;;
66607;SDS011;53462;39.616;8.824;2023-02-28T06:24:35;1.80;;;1.30;;
66607;SDS011;53462;39.616;8.824;2023-02-28T06:27:01;3.70;;;1.90;;
66607;SDS011;53462;39.616;8.824;2023-02-28T06:29:31;2.63;;;1.60;;
66607;SDS011;53462;39.616;8.824;2023-02-28T06:31:57;2.50;;;1.58;;
66607;SDS011;53462;39.616;8.824;2023-02-28T06:34:23;3.22;;;1.50;;
66607;SDS011;53462;39.616;8.824;2023-02-28T06:36:50;1.20;;;1.02;;
66607;SDS011;53462;39.616;8.824;2023-02-28T06:39:16;1.17;;;0.80;;
66607;SDS011;53462;39.616;8.824;2023-02-28T06:41:42;2.08;;;0.80;;
66607;SDS011;53462;39.616;8.824;2023-02-28T06:44:14;1.15;;;0.70;;
66607;SDS011;53462;39.616;8.824;2023-02-28T06:46:41;0.88;;;0.60;;
66607;SDS011;53462;39.616;8.824;2023-02-28T06:49:09;3.33;;;0.80;;
66607;SDS011;53462;39.616;8.824;2023-02-28T06:51:36;2.63;;;1.20;;
66607;SDS011;53462;39.616;8.824;2023-02-28T06:54:04;5.28;;;2.90;;
66607;SDS011;53462;39.616;8.824;2023-02-28T06:56:34;2.10;;;1.27;;
66607;SDS011;53462;39.616;8.824;2023-02-28T06:59:00;3.70;;;2.40;;
66607;SDS011;53462;39.616;8.824;2023-02-28T07:01:26;4.95;;;1.58;;
66607;SDS011;53462;39.616;8.824;2023-02-28T07:03:53;2.58;;;1.67;;
66607;SDS011;53462;39.616;8.824;2023-02-28T07:06:20;2.47;;;1.17;;
66607;SDS011;53462;39.616;8.824;2023-02-28T07:08:47;2.08;;;1.77;;
66607;SDS011;53462;39.616;8.824;2023-02-28T07:11:15;4.32;;;2.55;;
66607;SDS011;53462;39.616;8.824;2023-02-28T07:13:40;6.88;;;4.85;;
66607;SDS011;53462;39.616;8.824;2023-02-28T07:16:07;3.05;;;1.92;;
66607;SDS011;53462;39.616;8.824;2023-02-28T07:18:36;5.55;;;3.08;;
66607;SDS011;53462;39.616;8.824;2023-02-28T07:21:06;3.90;;;2.65;;
66607;SDS011;53462;39.616;8.824;2023-02-28T07:23:33;4.93;;;3.70;;
66607;SDS011;53462;39.616;8.824;2023-02-28T07:26:00;8.52;;;5.80;;
66607;SDS011;53462;39.616;8.824;2023-02-28T07:28:26;4.97;;;3.25;;
66607;SDS011;53462;39.616;8.824;2023-02-28T07:30:52;5.95;;;3.60;;
66607;SDS011;53462;39.616;8.824;2023-02-28T07:33:18;3.20;;;2.28;;
66607;SDS011;53462;39.616;8.824;2023-02-28T07:35:44;2.60;;;1.80;;
66607;SDS011;53462;39.616;8.824;2023-02-28T07:38:10;3.63;;;1.00;;
66607;SDS011;53462;39.616;8.824;2023-02-28T07:40:36;1.23;;;1.02;;
66607;SDS011;53462;39.616;8.824;2023-02-28T07:43:03;1.10;;;0.70;;
66607;SDS011;53462;39.616;8.824;2023-02-28T07:45:29;0.82;;;0.70;;
66607;SDS011;53462;39.616;8.824;2023-02-28T07:47:56;1.80;;;0.80;;
66607;SDS011;53462;39.616;8.824;2023-02-28T07:50:22;2.83;;;0.60;;
66607;SDS011;53462;39.616;8.824;2023-02-28T07:52:48;0.70;;;0.60;;
66607;SDS011;53462;39.616;8.824;2023-02-28T07:55:14;2.35;;;1.00;;
66607;SDS011;53462;39.616;8.824;2023-02-28T07:57:42;20.13;;;14.80;;
66607;SDS011;53462;39.616;8.824;2023-02-28T08:00:09;2.38;;;1.85;;
66607;SDS011;53462;39.616;8.824;2023-02-28T08:02:39;7.25;;;4.68;;
66607;SDS011;53462;39.616;8.824;2023-02-28T08:05:05;5.57;;;3.00;;
66607;SDS011;53462;39.616;8.824;2023-02-28T08:07:31;4.72;;;3.22;;
66607;SDS011;53462;39.616;8.824;2023-02-28T08:09:58;7.78;;;5.43;;
66607;SDS011;53462;39.616;8.824;2023-02-28T08:12:27;3.13;;;1.75;;
66607;SDS011;53462;39.616;8.824;2023-02-28T08:14:53;1.83;;;1.30;;
66607;SDS011;53462;39.616;8.824;2023-02-28T08:17:19;1.58;;;1.10;;
66607;SDS011;53462;39.616;8.824;2023-02-28T08:19:45;5.68;;;2.17;;
66607;SDS011;53462;39.616;8.824;2023-02-28T08:22:11;12.40;;;5.60;;
66607;SDS011;53462;39.616;8.824;2023-02-28T08:24:37;36.40;;;12.43;;
66607;SDS011;53462;39.616;8.824;2023-02-28T08:27:06;49.38;;;15.50;;
66607;SDS011;53462;39.616;8.824;2023-02-28T08:29:32;28.33;;;12.43;;
66607;SDS011;53462;39.616;8.824;2023-02-28T08:31:57;7.85;;;4.22;;
66607;SDS011;53462;39.616;8.824;2023-02-28T08:34:24;4.45;;;3.03;;
66607;SDS011;53462;39.616;8.824;2023-02-28T08:36:49;10.63;;;4.80;;
66607;SDS011;53462;39.616;8.824;2023-02-28T08:39:15;6.72;;;4.05;;
66607;SDS011;53462;39.616;8.824;2023-02-28T08:41:42;4.72;;;3.08;;
66607;SDS011;53462;39.616;8.824;2023-02-28T08:44:09;5.32;;;3.15;;
66607;SDS011;53462;39.616;8.824;2023-02-28T08:46:35;2.63;;;1.90;;
66607;SDS011;53462;39.616;8.824;2023-02-28T08:49:00;2.33;;;1.60;;
66607;SDS011;53462;39.616;8.824;2023-02-28T08:51:27;3.45;;;1.70;;
66607;SDS011;53462;39.616;8.824;2023-02-28T08:53:54;2.83;;;1.55;;
66607;SDS011;53462;39.616;8.824;2023-02-28T08:56:21;2.47;;;1.88;;
66607;SDS011;53462;39.616;8.824;2023-02-28T08:58:48;3.38;;;2.50;;
66607;SDS011;53462;39.616;8.824;2023-02-28T09:01:19;6.30;;;3.60;;
66607;SDS011;53462;39.616;8.824;2023-02-28T09:03:47;4.80;;;2.20;;
66607;SDS011;53462;39.616;8.824;2023-02-28T09:06:14;3.70;;;2.83;;
66607;SDS011;53462;39.616;8.824;2023-02-28T09:08:41;6.07;;;3.83;;
66607;SDS011;53462;39.616;8.824;2023-02-28T09:11:08;7.72;;;4.80;;
66607;SDS011;53462;39.616;8.824;2023-02-28T09:13:35;7.25;;;4.85;;
66607;SDS011;53462;39.616;8.824;2023-02-28T09:16:01;3.92;;;2.58;;
66607;SDS011;53462;39.616;8.824;2023-02-28T09:18:29;4.20;;;2.70;;
66607;SDS011;53462;39.616;8.824;2023-02-28T09:20:56;6.10;;;4.38;;
66607;SDS011;53462;39.616;8.824;2023-02-28T09:23:23;9.50;;;4.65;;
66607;SDS011;53462;39.616;8.824;2023-02-28T09:25:50;4.10;;;2.47;;
66607;SDS011;53462;39.616;8.824;2023-02-28T09:28:19;4.78;;;2.40;;
66607;SDS011;53462;39.616;8.824;2023-02-28T09:30:46;4.18;;;2.47;;
66607;SDS011;53462;39.616;8.824;2023-02-28T09:33:15;4.93;;;2.47;;
66607;SDS011;53462;39.616;8.824;2023-02-28T09:35:41;6.70;;;3.72;;
66607;SDS011;53462;39.616;8.824;2023-02-28T09:38:08;4.47;;;3.00;;
66607;SDS011;53462;39.616;8.824;2023-02-28T09:40:57;7.57;;;4.63;;
66607;SDS011;53462;39.616;8.824;2023-02-28T09:43:26;7.18;;;4.78;;
66607;SDS011;53462;39.616;8.824;2023-02-28T09:46:02;6.18;;;3.42;;
66607;SDS011;53462;39.616;8.824;2023-02-28T09:48:39;4.35;;;2.35;;
66607;SDS011;53462;39.616;8.824;2023-02-28T09:51:16;4.93;;;3.13;;
66607;SDS011;53462;39.616;8.824;2023-02-28T09:53:54;4.95;;;2.00;;
66607;SDS011;53462;39.616;8.824;2023-02-28T09:59:00;4.22;;;2.92;;
66607;SDS011;53462;39.616;8.824;2023-02-28T10:07:02;3.40;;;2.10;;
66607;SDS011;53462;39.616;8.824;2023-02-28T10:09:42;8.18;;;3.60;;
66607;SDS011;53462;39.616;8.824;2023-02-28T10:12:12;5.30;;;3.20;;
66607;SDS011;53462;39.616;8.824;2023-02-28T10:14:41;6.22;;;3.67;;
66607;SDS011;53462;39.616;8.824;2023-02-28T10:17:14;6.07;;;4.00;;
66607;SDS011;53462;39.616;8.824;2023-02-28T10:22:39;3.83;;;2.03;;
66607;SDS011;53462;39.616;8.824;2023-02-28T10:25:27;5.63;;;2.83;;
66607;SDS011;53462;39.616;8.824;2023-02-28T10:27:58;4.82;;;2.50;;
66607;SDS011;53462;39.616;8.824;2023-02-28T10:30:38;2.80;;;2.17;;
66607;SDS011;53462;39.616;8.824;2023-02-28T10:33:17;3.67;;;2.10;;
66607;SDS011;53462;39.616;8.824;2023-02-28T10:35:49;4.63;;;2.60;;
66607;SDS011;53462;39.616;8.824;2023-02-28T10:38:26;4.13;;;2.67;;
66607;SDS011;53462;39.616;8.824;2023-02-28T10:44:13;4.50;;;2.50;;
66607;SDS011;53462;39.616;8.824;2023-02-28T10:46:46;6.18;;;3.40;;
66607;SDS011;53462;39.616;8.824;2023-02-28T10:49:28;3.78;;;2.17;;
66607;SDS011;53462;39.616;8.824;2023-02-28T10:51:55;4.82;;;3.17;;
66607;SDS011;53462;39.616;8.824;2023-02-28T10:54:35;6.18;;;3.30;;
66607;SDS011;53462;39.616;8.824;2023-02-28T10:57:20;5.90;;;2.35;;
66607;SDS011;53462;39.616;8.824;2023-02-28T10:59:53;5.78;;;2.60;;
66607;SDS011;53462;39.616;8.824;2023-02-28T11:02:40;4.00;;;1.98;;
66607;SDS011;53462;39.616;8.824;2023-02-28T11:05:23;4.10;;;2.08;;
66607;SDS011;53462;39.616;8.824;2023-02-28T11:08:10;8.35;;;3.78;;
66607;SDS011;53462;39.616;8.824;2023-02-28T11:10:43;4.72;;;2.45;;
66607;SDS011;53462;39.616;8.824;2023-02-28T11:13:19;4.55;;;2.67;;
66607;SDS011;53462;39.616;8.824;2023-02-28T11:21:06;7.13;;;3.40;;
66607;SDS011;53462;39.616;8.824;2023-02-28T11:23:35;4.95;;;1.90;;
66607;SDS011;53462;39.616;8.824;2023-02-28T11:26:05;6.40;;;3.78;;
66607;SDS011;53462;39.616;8.824;2023-02-28T11:28:35;6.45;;;2.83;;
66607;SDS011;53462;39.616;8.824;2023-02-28T11:38:41;2.95;;;2.15;;
66607;SDS011;53462;39.616;8.824;2023-02-28T11:57:21;6.20;;;2.67;;
66607;SDS011;53462;39.616;8.824;2023-02-28T12:08:03;10.77;;;4.22;;
66607;SDS011;53462;39.616;8.824;2023-02-28T12:10:49;5.47;;;2.33;;
66607;SDS011;53462;39.616;8.824;2023-02-28T12:18:47;8.82;;;3.03;;
66607;SDS011;53462;39.616;8.824;2023-02-28T12:26:45;4.45;;;2.22;;
66607;SDS011;53462;39.616;8.824;2023-02-28T12:32:26;7.82;;;3.33;;
66607;SDS011;53462;39.616;8.824;2023-02-28T12:34:57;9.05;;;3.65;;
66607;SDS011;53462;39.616;8.824;2023-02-28T12:37:30;7.15;;;3.65;;
66607;SDS011;53462;39.616;8.824;2023-02-28T12:40:11;6.28;;;2.25;;
66607;SDS011;53462;39.616;8.824;2023-02-28T12:42:42;8.65;;;3.42;;
66607;SDS011;53462;39.616;8.824;2023-02-28T12:47:52;8.25;;;2.97;;
66607;SDS011;53462;39.616;8.824;2023-02-28T12:50:28;3.90;;;1.88;;
66607;SDS011;53462;39.616;8.824;2023-02-28T12:58:51;7.97;;;2.30;;
66607;SDS011;53462;39.616;8.824;2023-02-28T13:09:20;5.70;;;2.88;;
66607;SDS011;53462;39.616;8.824;2023-02-28T13:16:58;6.40;;;2.28;;
66607;SDS011;53462;39.616;8.824;2023-02-28T13:19:29;2.53;;;2.20;;
66607;SDS011;53462;39.616;8.824;2023-02-28T13:21:57;7.15;;;2.50;;
66607;SDS011;53462;39.616;8.824;2023-02-28T13:29:40;4.93;;;2.35;;
66607;SDS011;53462;39.616;8.824;2023-02-28T13:34:34;6.82;;;2.55;;
66607;SDS011;53462;39.616;8.824;2023-02-28T13:39:55;5.03;;;1.98;;
66607;SDS011;53462;39.616;8.824;2023-02-28T13:47:30;7.22;;;5.18;;
66607;SDS011;53462;39.616;8.824;2023-02-28T13:50:23;7.75;;;4.70;;
66607;SDS011;53462;39.616;8.824;2023-02-28T13:56:01;1.63;;;1.20;;
66607;SDS011;53462;39.616;8.824;2023-02-28T14:01:26;1.88;;;0.90;;
66607;SDS011;53462;39.616;8.824;2023-02-28T14:06:36;5.68;;;1.48;;
66607;SDS011;53462;39.616;8.824;2023-02-28T14:11:54;3.33;;;1.55;;
66607;SDS011;53462;39.616;8.824;2023-02-28T14:17:02;11.00;;;4.13;;
66607;SDS011;53462;39.616;8.824;2023-02-28T14:19:30;20.20;;;9.07;;
66607;SDS011;53462;39.616;8.824;2023-02-28T14:22:02;4.03;;;1.80;;
66607;SDS011;53462;39.616;8.824;2023-02-28T14:24:37;2.90;;;1.83;;
66607;SDS011;53462;39.616;8.824;2023-02-28T14:38:59;9.32;;;5.13;;
66607;SDS011;53462;39.616;8.824;2023-02-28T14:41:35;1.70;;;0.57;;
66607;SDS011;53462;39.616;8.824;2023-02-28T14:46:48;1.80;;;1.30;;
66607;SDS011;53462;39.616;8.824;2023-02-28T14:49:20;1.67;;;1.00;;
66607;SDS011;53462;39.616;8.824;2023-02-28T14:52:01;4.38;;;3.60;;
66607;SDS011;53462;39.616;8.824;2023-02-28T14:54:27;16.65;;;8.88;;
66607;SDS011;53462;39.616;8.824;2023-02-28T14:56:54;2.28;;;1.50;;
66607;SDS011;53462;39.616;8.824;2023-02-28T14:59:30;2.30;;;1.83;;
66607;SDS011;53462;39.616;8.824;2023-02-28T15:08:14;4.38;;;3.03;;
66607;SDS011;53462;39.616;8.824;2023-02-28T15:10:51;2.95;;;2.03;;
66607;SDS011;53462;39.616;8.824;2023-02-28T15:13:26;3.67;;;2.33;;
66607;SDS011;53462;39.616;8.824;2023-02-28T15:16:12;2.70;;;1.75;;
66607;SDS011;53462;39.616;8.824;2023-02-28T15:21:26;1.92;;;1.20;;
66607;SDS011;53462;39.616;8.824;2023-02-28T15:24:06;1.90;;;1.08;;
66607;SDS011;53462;39.616;8.824;2023-02-28T15:26:37;1.30;;;0.82;;
66607;SDS011;53462;39.616;8.824;2023-02-28T15:29:10;1.77;;;1.00;;
66607;SDS011;53462;39.616;8.824;2023-02-28T15:34:19;2.47;;;1.20;;
66607;SDS011;53462;39.616;8.824;2023-02-28T15:36:52;3.75;;;1.48;;
66607;SDS011;53462;39.616;8.824;2023-02-28T15:39:22;4.75;;;1.85;;
66607;SDS011;53462;39.616;8.824;2023-02-28T15:41:50;2.00;;;1.40;;
66607;SDS011;53462;39.616;8.824;2023-02-28T15:44:17;3.88;;;2.35;;
66607;SDS011;53462;39.616;8.824;2023-02-28T15:49:57;6.72;;;3.55;;
66607;SDS011;53462;39.616;8.824;2023-02-28T15:57:44;6.82;;;4.88;;
66607;SDS011;53462;39.616;8.824;2023-02-28T16:00:14;6.85;;;4.95;;
66607;SDS011;53462;39.616;8.824;2023-02-28T16:02:42;25.48;;;16.70;;
66607;SDS011;53462;39.616;8.824;2023-02-28T16:07:34;10.60;;;6.90;;
66607;SDS011;53462;39.616;8.824;2023-02-28T16:10:02;5.07;;;3.20;;
66607;SDS011;53462;39.616;8.824;2023-02-28T16:12:30;3.47;;;2.85;;
66607;SDS011;53462;39.616;8.824;2023-02-28T16:14:58;8.35;;;5.97;;
66607;SDS011;53462;39.616;8.824;2023-02-28T16:17:29;9.18;;;4.53;;
66607;SDS011;53462;39.616;8.824;2023-02-28T16:19:58;6.57;;;3.72;;
66607;SDS011;53462;39.616;8.824;2023-02-28T16:22:24;3.90;;;1.75;;
66607;SDS011;53462;39.616;8.824;2023-02-28T16:24:50;6.28;;;3.80;;
66607;SDS011;53462;39.616;8.824;2023-02-28T16:29:42;8.77;;;4.82;;
66607;SDS011;53462;39.616;8.824;2023-02-28T16:32:10;9.40;;;6.88;;
66607;SDS011;53462;39.616;8.824;2023-02-28T16:34:39;10.05;;;7.30;;
66607;SDS011;53462;39.616;8.824;2023-02-28T16:37:12;8.55;;;5.85;;
66607;SDS011;53462;39.616;8.824;2023-02-28T16:39:40;10.93;;;5.47;;
66607;SDS011;53462;39.616;8.824;2023-02-28T16:42:07;9.65;;;5.63;;
66607;SDS011;53462;39.616;8.824;2023-02-28T16:45:01;9.43;;;5.70;;
66607;SDS011;53462;39.616;8.824;2023-02-28T16:47:28;8.70;;;5.13;;
66607;SDS011;53462;39.616;8.824;2023-02-28T16:49:54;6.93;;;4.72;;
66607;SDS011;53462;39.616;8.824;2023-02-28T16:52:20;6.95;;;4.50;;
66607;SDS011;53462;39.616;8.824;2023-02-28T16:54:46;10.23;;;6.13;;
66607;SDS011;53462;39.616;8.824;2023-02-28T16:57:21;10.57;;;6.55;;
66607;SDS011;53462;39.616;8.824;2023-02-28T16:59:51;5.13;;;3.30;;
66607;SDS011;53462;39.616;8.824;2023-02-28T17:02:17;8.05;;;5.63;;
66607;SDS011;53462;39.616;8.824;2023-02-28T17:04:44;8.35;;;6.35;;
66607;SDS011;53462;39.616;8.824;2023-02-28T17:07:11;6.55;;;5.28;;
66607;SDS011;53462;39.616;8.824;2023-02-28T17:09:38;7.30;;;4.97;;
66607;SDS011;53462;39.616;8.824;2023-02-28T17:12:06;37.08;;;19.60;;
66607;SDS011;53462;39.616;8.824;2023-02-28T17:14:34;42.67;;;24.83;;
66607;SDS011;53462;39.616;8.824;2023-02-28T17:17:04;24.52;;;16.13;;
66607;SDS011;53462;39.616;8.824;2023-02-28T17:19:34;14.93;;;9.45;;
66607;SDS011;53462;39.616;8.824;2023-02-28T17:22:03;31.00;;;19.83;;
66607;SDS011;53462;39.616;8.824;2023-02-28T17:24:30;19.00;;;12.35;;
66607;SDS011;53462;39.616;8.824;2023-02-28T17:26:58;24.75;;;16.83;;
66607;SDS011;53462;39.616;8.824;2023-02-28T17:29:27;12.93;;;7.50;;
66607;SDS011;53462;39.616;8.824;2023-02-28T17:31:55;28.27;;;16.45;;
66607;SDS011;53462;39.616;8.824;2023-02-28T17:34:22;34.63;;;20.33;;
66607;SDS011;53462;39.616;8.824;2023-02-28T17:36:49;28.05;;;16.52;;
66607;SDS011;53462;39.616;8.824;2023-02-28T17:39:19;30.88;;;19.08;;
66607;SDS011;53462;39.616;8.824;2023-02-28T17:41:50;35.97;;;21.83;;
66607;SDS011;53462;39.616;8.824;2023-02-28T17:44:19;25.95;;;15.65;;
66607;SDS011;53462;39.616;8.824;2023-02-28T17:46:47;32.70;;;18.17;;
66607;SDS011;53462;39.616;8.824;2023-02-28T17:49:15;23.65;;;15.10;;
66607;SDS011;53462;39.616;8.824;2023-02-28T17:51:45;23.52;;;15.70;;
66607;SDS011;53462;39.616;8.824;2023-02-28T17:54:14;29.75;;;18.88;;
66607;SDS011;53462;39.616;8.824;2023-02-28T17:56:40;25.67;;;17.30;;
66607;SDS011;53462;39.616;8.824;2023-02-28T17:59:08;23.90;;;16.75;;
66607;SDS011;53462;39.616;8.824;2023-02-28T18:01:35;21.50;;;14.02;;
66607;SDS011;53462;39.616;8.824;2023-02-28T18:04:01;20.88;;;13.38;;
66607;SDS011;53462;39.616;8.824;2023-02-28T18:06:32;27.58;;;17.00;;
66607;SDS011;53462;39.616;8.824;2023-02-28T18:09:15;24.75;;;15.98;;